Terminal Aerodrome Forecast
Issued by NWS

Home | Current Version | Previous Version | Text Only | Print | Product List | Glossary Off
Versions: 1 2 3 4 5 6 7 8 9 10 11 12 13 14 15

000
FTUS43 KIWX 050521
TAFSBN
TAF
KSBN 050521Z 0506/0606 35016G25KT 6SM -SHRA BR OVC012
      TEMPO 0506/0508 3SM -SHRA OVC008
     FM051500 36012KT P6SM SCT020
     FM060100 32003KT P6SM SKC=

USA.gov is the U.S. government's official web portal to all federal, state and local government web resources and services.